sensor_id;sensor_type;location;lat;lon;timestamp;temperature;humidity
66582;SHT31;53438;48.898;2.308;2023-03-23T00:01:12;13.82;76.46
66582;SHT31;53438;48.898;2.308;2023-03-23T00:03:39;13.82;76.48
66582;SHT31;53438;48.898;2.308;2023-03-23T00:06:05;13.80;76.40
66582;SHT31;53438;48.898;2.308;2023-03-23T00:08:38;13.82;76.21
66582;SHT31;53438;48.898;2.308;2023-03-23T00:11:17;13.77;75.83
66582;SHT31;53438;48.898;2.308;2023-03-23T00:13:48;13.80;75.91
66582;SHT31;53438;48.898;2.308;2023-03-23T00:16:17;13.77;75.65
66582;SHT31;53438;48.898;2.308;2023-03-23T00:18:47;13.76;75.54
66582;SHT31;53438;48.898;2.308;2023-03-23T00:21:15;13.73;75.61
66582;SHT31;53438;48.898;2.308;2023-03-23T00:23:40;13.74;75.47
66582;SHT31;53438;48.898;2.308;2023-03-23T00:26:06;13.72;75.42
66582;SHT31;53438;48.898;2.308;2023-03-23T00:28:32;13.69;75.37
66582;SHT31;53438;48.898;2.308;2023-03-23T00:31:00;13.67;75.41
66582;SHT31;53438;48.898;2.308;2023-03-23T00:33:27;13.66;75.40
66582;SHT31;53438;48.898;2.308;2023-03-23T00:35:54;13.72;75.23
66582;SHT31;53438;48.898;2.308;2023-03-23T00:38:21;13.69;75.02
66582;SHT31;53438;48.898;2.308;2023-03-23T00:40:47;13.74;74.74
66582;SHT31;53438;48.898;2.308;2023-03-23T00:43:15;13.74;74.74
66582;SHT31;53438;48.898;2.308;2023-03-23T00:45:41;13.70;74.91
66582;SHT31;53438;48.898;2.308;2023-03-23T00:48:07;13.65;75.03
66582;SHT31;53438;48.898;2.308;2023-03-23T00:50:32;13.69;74.94
66582;SHT31;53438;48.898;2.308;2023-03-23T00:52:58;13.62;75.19
66582;SHT31;53438;48.898;2.308;2023-03-23T00:55:24;13.65;75.23
66582;SHT31;53438;48.898;2.308;2023-03-23T00:57:51;13.66;75.27
66582;SHT31;53438;48.898;2.308;2023-03-23T04:01:57;13.43;76.87
66582;SHT31;53438;48.898;2.308;2023-03-23T04:04:23;13.45;77.06
66582;SHT31;53438;48.898;2.308;2023-03-23T04:06:48;13.52;76.74
66582;SHT31;53438;48.898;2.308;2023-03-23T04:09:14;13.49;76.60
66582;SHT31;53438;48.898;2.308;2023-03-23T04:11:39;13.49;76.70
66582;SHT31;53438;48.898;2.308;2023-03-23T04:14:05;13.48;76.86
66582;SHT31;53438;48.898;2.308;2023-03-23T04:16:31;13.51;76.51
66582;SHT31;53438;48.898;2.308;2023-03-23T04:19:00;13.46;76.76
66582;SHT31;53438;48.898;2.308;2023-03-23T04:21:25;13.43;76.89
66582;SHT31;53438;48.898;2.308;2023-03-23T04:23:55;13.41;77.26
66582;SHT31;53438;48.898;2.308;2023-03-23T04:26:26;13.41;76.85
66582;SHT31;53438;48.898;2.308;2023-03-23T04:28:54;13.42;76.79
66582;SHT31;53438;48.898;2.308;2023-03-23T04:31:20;13.43;76.64
66582;SHT31;53438;48.898;2.308;2023-03-23T04:33:45;13.39;76.84
66582;SHT31;53438;48.898;2.308;2023-03-23T04:36:11;13.39;76.97
66582;SHT31;53438;48.898;2.308;2023-03-23T04:38:41;13.46;76.85
66582;SHT31;53438;48.898;2.308;2023-03-23T04:41:07;13.39;76.74
66582;SHT31;53438;48.898;2.308;2023-03-23T04:43:33;13.45;76.63
66582;SHT31;53438;48.898;2.308;2023-03-23T04:46:06;13.48;76.61
66582;SHT31;53438;48.898;2.308;2023-03-23T04:48:33;13.39;76.54
66582;SHT31;53438;48.898;2.308;2023-03-23T04:51:01;13.38;76.52
66582;SHT31;53438;48.898;2.308;2023-03-23T04:53:28;13.42;76.51
66582;SHT31;53438;48.898;2.308;2023-03-23T04:55:53;13.42;76.37
66582;SHT31;53438;48.898;2.308;2023-03-23T04:58:18;13.43;76.18
66582;SHT31;53438;48.898;2.308;2023-03-23T05:00:44;13.41;76.29
66582;SHT31;53438;48.898;2.308;2023-03-23T05:03:17;13.45;76.23
66582;SHT31;53438;48.898;2.308;2023-03-23T05:05:44;13.46;76.29
66582;SHT31;53438;48.898;2.308;2023-03-23T05:08:13;13.43;76.21
66582;SHT31;53438;48.898;2.308;2023-03-23T05:10:38;13.59;75.58
66582;SHT31;53438;48.898;2.308;2023-03-23T05:13:04;13.53;75.85
66582;SHT31;53438;48.898;2.308;2023-03-23T05:15:29;13.49;75.72
66582;SHT31;53438;48.898;2.308;2023-03-23T05:17:55;13.46;75.81
66582;SHT31;53438;48.898;2.308;2023-03-23T05:20:20;13.48;75.88
66582;SHT31;53438;48.898;2.308;2023-03-23T05:22:47;13.43;75.84
66582;SHT31;53438;48.898;2.308;2023-03-23T05:25:15;13.46;75.85
66582;SHT31;53438;48.898;2.308;2023-03-23T05:27:40;13.41;75.91
66582;SHT31;53438;48.898;2.308;2023-03-23T05:30:14;13.46;75.96
66582;SHT31;53438;48.898;2.308;2023-03-23T05:32:42;13.46;76.27
66582;SHT31;53438;48.898;2.308;2023-03-23T05:35:08;13.43;76.34
66582;SHT31;53438;48.898;2.308;2023-03-23T05:37:33;13.43;76.53
66582;SHT31;53438;48.898;2.308;2023-03-23T05:39:59;13.39;76.81
66582;SHT31;53438;48.898;2.308;2023-03-23T05:42:30;13.36;76.86
66582;SHT31;53438;48.898;2.308;2023-03-23T05:44:55;13.46;76.73
66582;SHT31;53438;48.898;2.308;2023-03-23T05:47:21;13.45;76.84
66582;SHT31;53438;48.898;2.308;2023-03-23T05:49:46;13.43;77.23
66582;SHT31;53438;48.898;2.308;2023-03-23T05:52:12;13.36;77.27
66582;SHT31;53438;48.898;2.308;2023-03-23T05:54:38;13.34;77.23
66582;SHT31;53438;48.898;2.308;2023-03-23T05:57:03;13.35;77.55
66582;SHT31;53438;48.898;2.308;2023-03-23T05:59:30;13.46;77.67
66582;SHT31;53438;48.898;2.308;2023-03-23T06:01:56;13.39;77.76
66582;SHT31;53438;48.898;2.308;2023-03-23T06:04:22;13.32;78.18
66582;SHT31;53438;48.898;2.308;2023-03-23T06:06:51;13.35;78.21
66582;SHT31;53438;48.898;2.308;2023-03-23T06:09:19;13.28;78.66
66582;SHT31;53438;48.898;2.308;2023-03-23T06:11:46;13.28;78.95
66582;SHT31;53438;48.898;2.308;2023-03-23T06:14:12;13.25;79.13
66582;SHT31;53438;48.898;2.308;2023-03-23T06:16:39;13.25;79.17
66582;SHT31;53438;48.898;2.308;2023-03-23T06:19:05;13.25;79.15
66582;SHT31;53438;48.898;2.308;2023-03-23T06:21:31;13.26;79.13
66582;SHT31;53438;48.898;2.308;2023-03-23T06:23:57;13.25;79.22
66582;SHT31;53438;48.898;2.308;2023-03-23T06:26:27;13.24;79.37
66582;SHT31;53438;48.898;2.308;2023-03-23T06:28:53;13.24;79.06
66582;SHT31;53438;48.898;2.308;2023-03-23T06:31:19;13.22;79.37
66582;SHT31;53438;48.898;2.308;2023-03-23T06:33:45;13.22;79.50
66582;SHT31;53438;48.898;2.308;2023-03-23T06:36:12;13.24;79.38
66582;SHT31;53438;48.898;2.308;2023-03-23T06:38:38;13.25;78.87
66582;SHT31;53438;48.898;2.308;2023-03-23T06:41:03;13.34;78.21
66582;SHT31;53438;48.898;2.308;2023-03-23T06:43:30;13.28;78.36
66582;SHT31;53438;48.898;2.308;2023-03-23T06:45:58;13.26;78.37
66582;SHT31;53438;48.898;2.308;2023-03-23T06:48:24;13.29;78.62
66582;SHT31;53438;48.898;2.308;2023-03-23T06:50:50;13.26;78.75
66582;SHT31;53438;48.898;2.308;2023-03-23T06:53:16;13.26;78.92
66582;SHT31;53438;48.898;2.308;2023-03-23T06:55:43;13.28;78.91
66582;SHT31;53438;48.898;2.308;2023-03-23T06:58:09;13.31;78.99
66582;SHT31;53438;48.898;2.308;2023-03-23T07:00:34;13.34;78.90
66582;SHT31;53438;48.898;2.308;2023-03-23T07:03:00;13.35;78.88
66582;SHT31;53438;48.898;2.308;2023-03-23T07:05:26;13.39;78.93
66582;SHT31;53438;48.898;2.308;2023-03-23T07:07:52;13.38;79.08
66582;SHT31;53438;48.898;2.308;2023-03-23T07:10:17;13.35;79.07
66582;SHT31;53438;48.898;2.308;2023-03-23T07:12:43;13.39;79.21
66582;SHT31;53438;48.898;2.308;2023-03-23T07:15:09;13.42;78.91
66582;SHT31;53438;48.898;2.308;2023-03-23T07:17:37;13.43;78.73
66582;SHT31;53438;48.898;2.308;2023-03-23T07:20:03;13.51;78.10
66582;SHT31;53438;48.898;2.308;2023-03-23T07:22:30;13.55;78.06
66582;SHT31;53438;48.898;2.308;2023-03-23T07:24:55;13.45;78.20
66582;SHT31;53438;48.898;2.308;2023-03-23T07:27:21;13.52;78.25
66582;SHT31;53438;48.898;2.308;2023-03-23T07:29:46;13.55;78.17
66582;SHT31;53438;48.898;2.308;2023-03-23T07:32:12;13.53;77.83
66582;SHT31;53438;48.898;2.308;2023-03-23T07:34:39;13.55;77.58
66582;SHT31;53438;48.898;2.308;2023-03-23T07:37:05;13.59;77.32
66582;SHT31;53438;48.898;2.308;2023-03-23T07:39:30;13.62;77.20
66582;SHT31;53438;48.898;2.308;2023-03-23T07:41:56;13.67;76.67
66582;SHT31;53438;48.898;2.308;2023-03-23T07:44:22;13.59;76.94
66582;SHT31;53438;48.898;2.308;2023-03-23T07:46:48;13.62;76.91
66582;SHT31;53438;48.898;2.308;2023-03-23T07:49:13;13.63;76.39
66582;SHT31;53438;48.898;2.308;2023-03-23T07:51:39;13.61;76.50
66582;SHT31;53438;48.898;2.308;2023-03-23T07:54:05;13.62;76.17
66582;SHT31;53438;48.898;2.308;2023-03-23T07:56:33;13.66;76.17
66582;SHT31;53438;48.898;2.308;2023-03-23T07:58:58;13.69;76.06
66582;SHT31;53438;48.898;2.308;2023-03-23T08:01:24;13.65;75.72
66582;SHT31;53438;48.898;2.308;2023-03-23T08:03:50;13.72;75.75
66582;SHT31;53438;48.898;2.308;2023-03-23T08:06:17;13.73;75.50
66582;SHT31;53438;48.898;2.308;2023-03-23T08:08:43;13.74;75.59
66582;SHT31;53438;48.898;2.308;2023-03-23T08:11:09;13.80;75.20
66582;SHT31;53438;48.898;2.308;2023-03-23T08:13:34;13.80;75.24
66582;SHT31;53438;48.898;2.308;2023-03-23T08:16:00;13.83;74.99
66582;SHT31;53438;48.898;2.308;2023-03-23T08:18:29;13.86;74.63
66582;SHT31;53438;48.898;2.308;2023-03-23T08:20:56;13.87;74.34
66582;SHT31;53438;48.898;2.308;2023-03-23T08:23:23;13.82;74.23
66582;SHT31;53438;48.898;2.308;2023-03-23T08:25:48;13.86;74.11
66582;SHT31;53438;48.898;2.308;2023-03-23T08:28:14;13.89;73.77
66582;SHT31;53438;48.898;2.308;2023-03-23T08:30:40;13.86;73.58
66582;SHT31;53438;48.898;2.308;2023-03-23T08:33:06;13.89;73.50
66582;SHT31;53438;48.898;2.308;2023-03-23T08:35:32;13.90;73.27
66582;SHT31;53438;48.898;2.308;2023-03-23T08:37:57;13.90;73.38
66582;SHT31;53438;48.898;2.308;2023-03-23T08:40:24;13.90;73.28
66582;SHT31;53438;48.898;2.308;2023-03-23T08:42:51;13.93;73.43
66582;SHT31;53438;48.898;2.308;2023-03-23T08:45:19;13.94;73.38
66582;SHT31;53438;48.898;2.308;2023-03-23T08:47:45;13.99;73.39
66582;SHT31;53438;48.898;2.308;2023-03-23T08:50:16;14.04;73.09
66582;SHT31;53438;48.898;2.308;2023-03-23T08:52:42;13.97;72.96
66582;SHT31;53438;48.898;2.308;2023-03-23T08:55:09;14.00;73.06
66582;SHT31;53438;48.898;2.308;2023-03-23T08:57:35;13.97;73.11
66582;SHT31;53438;48.898;2.308;2023-03-23T09:00:05;14.03;72.88
66582;SHT31;53438;48.898;2.308;2023-03-23T09:02:50;14.00;72.90
66582;SHT31;53438;48.898;2.308;2023-03-23T09:05:17;13.94;72.79
66582;SHT31;53438;48.898;2.308;2023-03-23T09:07:46;13.96;72.71
66582;SHT31;53438;48.898;2.308;2023-03-23T09:10:13;14.00;72.38
66582;SHT31;53438;48.898;2.308;2023-03-23T09:12:40;13.93;72.49
66582;SHT31;53438;48.898;2.308;2023-03-23T09:15:06;13.97;72.46
66582;SHT31;53438;48.898;2.308;2023-03-23T09:17:42;13.97;72.37
66582;SHT31;53438;48.898;2.308;2023-03-23T09:20:10;14.04;72.38
66582;SHT31;53438;48.898;2.308;2023-03-23T09:22:43;14.09;72.21
66582;SHT31;53438;48.898;2.308;2023-03-23T09:25:14;14.24;71.40
66582;SHT31;53438;48.898;2.308;2023-03-23T09:27:42;14.31;71.13
66582;SHT31;53438;48.898;2.308;2023-03-23T09:30:10;14.30;71.16
66582;SHT31;53438;48.898;2.308;2023-03-23T09:32:37;14.25;70.98
66582;SHT31;53438;48.898;2.308;2023-03-23T09:35:05;14.25;71.20
66582;SHT31;53438;48.898;2.308;2023-03-23T09:37:33;14.37;70.83
66582;SHT31;53438;48.898;2.308;2023-03-23T09:40:05;14.42;70.62
66582;SHT31;53438;48.898;2.308;2023-03-23T09:42:36;14.35;70.48
66582;SHT31;53438;48.898;2.308;2023-03-23T09:47:37;14.46;70.00
66582;SHT31;53438;48.898;2.308;2023-03-23T09:50:25;14.55;69.81
66582;SHT31;53438;48.898;2.308;2023-03-23T09:52:58;14.49;69.83
66582;SHT31;53438;48.898;2.308;2023-03-23T09:55:26;14.48;70.02
66582;SHT31;53438;48.898;2.308;2023-03-23T09:58:01;14.49;70.13
66582;SHT31;53438;48.898;2.308;2023-03-23T10:03:15;14.68;69.38
66582;SHT31;53438;48.898;2.308;2023-03-23T10:05:44;14.72;69.04
66582;SHT31;53438;48.898;2.308;2023-03-23T10:08:15;14.81;68.74
66582;SHT31;53438;48.898;2.308;2023-03-23T10:16:17;14.91;68.06
66582;SHT31;53438;48.898;2.308;2023-03-23T10:18:49;14.98;68.38
66582;SHT31;53438;48.898;2.308;2023-03-23T10:21:21;15.02;68.00
66582;SHT31;53438;48.898;2.308;2023-03-23T10:23:56;15.03;68.12
66582;SHT31;53438;48.898;2.308;2023-03-23T10:29:20;15.09;68.06
66582;SHT31;53438;48.898;2.308;2023-03-23T10:31:59;15.13;67.72
66582;SHT31;53438;48.898;2.308;2023-03-23T10:34:30;15.14;67.22
66582;SHT31;53438;48.898;2.308;2023-03-23T10:37:29;15.09;66.92
66582;SHT31;53438;48.898;2.308;2023-03-23T10:40:01;15.09;66.80
66582;SHT31;53438;48.898;2.308;2023-03-23T10:42:30;15.07;67.10
66582;SHT31;53438;48.898;2.308;2023-03-23T10:44:59;15.03;67.27
66582;SHT31;53438;48.898;2.308;2023-03-23T10:47:25;15.06;66.75
66582;SHT31;53438;48.898;2.308;2023-03-23T10:49:56;15.07;66.51
66582;SHT31;53438;48.898;2.308;2023-03-23T10:52:34;15.19;66.07
66582;SHT31;53438;48.898;2.308;2023-03-23T10:57:33;15.13;66.17
66582;SHT31;53438;48.898;2.308;2023-03-23T11:00:03;15.13;66.26
66582;SHT31;53438;48.898;2.308;2023-03-23T11:02:35;15.18;65.95
66582;SHT31;53438;48.898;2.308;2023-03-23T11:05:09;15.20;65.93
66582;SHT31;53438;48.898;2.308;2023-03-23T11:07:38;15.24;66.29
66582;SHT31;53438;48.898;2.308;2023-03-23T11:10:14;15.31;65.99
66582;SHT31;53438;48.898;2.308;2023-03-23T11:12:44;15.33;66.02
66582;SHT31;53438;48.898;2.308;2023-03-23T11:15:23;15.33;66.18
66582;SHT31;53438;48.898;2.308;2023-03-23T11:18:02;15.47;65.66
66582;SHT31;53438;48.898;2.308;2023-03-23T11:20:29;15.39;65.87
66582;SHT31;53438;48.898;2.308;2023-03-23T11:22:58;15.36;65.94
66582;SHT31;53438;48.898;2.308;2023-03-23T11:25:24;15.40;65.69
66582;SHT31;53438;48.898;2.308;2023-03-23T11:27:51;15.46;65.92
66582;SHT31;53438;48.898;2.308;2023-03-23T11:30:23;15.44;65.90
66582;SHT31;53438;48.898;2.308;2023-03-23T11:32:50;15.50;65.80
66582;SHT31;53438;48.898;2.308;2023-03-23T11:35:22;15.53;65.41
66582;SHT31;53438;48.898;2.308;2023-03-23T11:37:53;15.54;65.23
66582;SHT31;53438;48.898;2.308;2023-03-23T11:40:24;15.54;65.11
66582;SHT31;53438;48.898;2.308;2023-03-23T11:53:56;15.64;65.07
66582;SHT31;53438;48.898;2.308;2023-03-23T11:58:53;15.64;64.32
66582;SHT31;53438;48.898;2.308;2023-03-23T12:01:43;15.62;64.64
66582;SHT31;53438;48.898;2.308;2023-03-23T12:20:36;15.75;63.85
66582;SHT31;53438;48.898;2.308;2023-03-23T12:40:09;16.02;64.25
66582;SHT31;53438;48.898;2.308;2023-03-23T12:48:00;16.19;62.91
66582;SHT31;53438;48.898;2.308;2023-03-23T12:53:50;16.02;62.06
66582;SHT31;53438;48.898;2.308;2023-03-23T12:56:34;16.11;61.50
66582;SHT31;53438;48.898;2.308;2023-03-23T13:01:37;16.11;62.82
66582;SHT31;53438;48.898;2.308;2023-03-23T13:04:07;16.11;63.16
66582;SHT31;53438;48.898;2.308;2023-03-23T13:06:42;16.18;62.60
66582;SHT31;53438;48.898;2.308;2023-03-23T13:12:09;16.22;62.71
66582;SHT31;53438;48.898;2.308;2023-03-23T13:14:39;16.20;62.71
66582;SHT31;53438;48.898;2.308;2023-03-23T13:17:27;16.32;62.21
66582;SHT31;53438;48.898;2.308;2023-03-23T13:26:01;16.34;61.71
66582;SHT31;53438;48.898;2.308;2023-03-23T13:28:32;16.39;61.54
66582;SHT31;53438;48.898;2.308;2023-03-23T13:30:59;16.42;61.71
66582;SHT31;53438;48.898;2.308;2023-03-23T13:33:29;16.45;61.55
66582;SHT31;53438;48.898;2.308;2023-03-23T13:35:55;16.52;61.61
66582;SHT31;53438;48.898;2.308;2023-03-23T13:38:26;16.45;62.03
66582;SHT31;53438;48.898;2.308;2023-03-23T13:40:54;16.43;62.19
66582;SHT31;53438;48.898;2.308;2023-03-23T13:43:27;16.45;62.20
66582;SHT31;53438;48.898;2.308;2023-03-23T13:45:53;16.40;62.12
66582;SHT31;53438;48.898;2.308;2023-03-23T13:48:23;16.40;61.33
66582;SHT31;53438;48.898;2.308;2023-03-23T13:50:59;16.50;61.07
66582;SHT31;53438;48.898;2.308;2023-03-23T13:53:31;16.52;60.82
66582;SHT31;53438;48.898;2.308;2023-03-23T13:56:34;16.50;60.40
66582;SHT31;53438;48.898;2.308;2023-03-23T13:59:13;16.52;60.32
66582;SHT31;53438;48.898;2.308;2023-03-23T14:01:40;16.52;59.89
66582;SHT31;53438;48.898;2.308;2023-03-23T14:04:13;16.53;58.97
66582;SHT31;53438;48.898;2.308;2023-03-23T14:06:40;16.59;59.38
66582;SHT31;53438;48.898;2.308;2023-03-23T14:09:17;16.53;59.74
66582;SHT31;53438;48.898;2.308;2023-03-23T14:11:57;16.50;60.13
66582;SHT31;53438;48.898;2.308;2023-03-23T14:14:27;16.53;59.20
66582;SHT31;53438;48.898;2.308;2023-03-23T14:17:27;16.57;59.11
66582;SHT31;53438;48.898;2.308;2023-03-23T14:19:54;16.56;59.54
66582;SHT31;53438;48.898;2.308;2023-03-23T14:24:50;16.60;60.12
66582;SHT31;53438;48.898;2.308;2023-03-23T14:27:21;16.60;60.58
66582;SHT31;53438;48.898;2.308;2023-03-23T14:30:02;16.59;60.65
66582;SHT31;53438;48.898;2.308;2023-03-23T14:32:29;16.60;60.78
66582;SHT31;53438;48.898;2.308;2023-03-23T14:34:58;16.57;61.11
66582;SHT31;53438;48.898;2.308;2023-03-23T14:37:25;16.63;61.14
66582;SHT31;53438;48.898;2.308;2023-03-23T14:39:54;16.63;61.17
66582;SHT31;53438;48.898;2.308;2023-03-23T14:42:29;16.66;61.05
66582;SHT31;53438;48.898;2.308;2023-03-23T14:44:56;16.63;61.25
66582;SHT31;53438;48.898;2.308;2023-03-23T14:47:29;16.59;60.79
66582;SHT31;53438;48.898;2.308;2023-03-23T14:49:57;16.60;61.09
66582;SHT31;53438;48.898;2.308;2023-03-23T14:52:26;16.60;60.81
66582;SHT31;53438;48.898;2.308;2023-03-23T14:54:52;16.61;60.60
66582;SHT31;53438;48.898;2.308;2023-03-23T14:57:20;16.60;60.78
66582;SHT31;53438;48.898;2.308;2023-03-23T14:59:51;16.63;60.41
66582;SHT31;53438;48.898;2.308;2023-03-23T15:02:58;16.59;60.23
66582;SHT31;53438;48.898;2.308;2023-03-23T15:05:20;16.59;60.02
66582;SHT31;53438;48.898;2.308;2023-03-23T15:07:51;16.64;59.97
66582;SHT31;53438;48.898;2.308;2023-03-23T15:10:21;16.64;60.10
66582;SHT31;53438;48.898;2.308;2023-03-23T15:12:48;16.66;60.14
66582;SHT31;53438;48.898;2.308;2023-03-23T15:15:21;16.71;59.74
66582;SHT31;53438;48.898;2.308;2023-03-23T15:17:47;16.70;60.08
66582;SHT31;53438;48.898;2.308;2023-03-23T15:22:48;16.74;59.97
66582;SHT31;53438;48.898;2.308;2023-03-23T15:27:57;16.73;60.04
66582;SHT31;53438;48.898;2.308;2023-03-23T15:32:51;16.69;59.54
66582;SHT31;53438;48.898;2.308;2023-03-23T15:35:23;16.73;59.13
66582;SHT31;53438;48.898;2.308;2023-03-23T15:38:00;16.76;58.57
66582;SHT31;53438;48.898;2.308;2023-03-23T15:40:27;16.67;58.64
66582;SHT31;53438;48.898;2.308;2023-03-23T15:43:20;16.59;58.73
66582;SHT31;53438;48.898;2.308;2023-03-23T15:46:02;16.56;58.92
66582;SHT31;53438;48.898;2.308;2023-03-23T15:48:44;16.57;58.82
66582;SHT31;53438;48.898;2.308;2023-03-23T15:51:10;16.56;58.49
66582;SHT31;53438;48.898;2.308;2023-03-23T15:53:38;16.53;58.40
66582;SHT31;53438;48.898;2.308;2023-03-23T15:56:06;16.48;58.81
66582;SHT31;53438;48.898;2.308;2023-03-23T15:58:32;16.49;58.84
66582;SHT31;53438;48.898;2.308;2023-03-23T16:00:59;16.49;58.68
66582;SHT31;53438;48.898;2.308;2023-03-23T16:03:49;16.48;58.76
66582;SHT31;53438;48.898;2.308;2023-03-23T16:06:18;16.48;58.80
66582;SHT31;53438;48.898;2.308;2023-03-23T16:08:44;16.43;59.10
66582;SHT31;53438;48.898;2.308;2023-03-23T16:11:12;16.43;59.18
66582;SHT31;53438;48.898;2.308;2023-03-23T16:13:38;16.45;59.49
66582;SHT31;53438;48.898;2.308;2023-03-23T16:16:05;16.46;59.40
66582;SHT31;53438;48.898;2.308;2023-03-23T16:18:32;16.40;59.60
66582;SHT31;53438;48.898;2.308;2023-03-23T16:20:58;16.38;59.61
66582;SHT31;53438;48.898;2.308;2023-03-23T16:23:23;16.39;59.74
66582;SHT31;53438;48.898;2.308;2023-03-23T16:25:49;16.39;59.90
66582;SHT31;53438;48.898;2.308;2023-03-23T16:28:15;16.38;60.07
66582;SHT31;53438;48.898;2.308;2023-03-23T16:30:42;16.38;60.20
66582;SHT31;53438;48.898;2.308;2023-03-23T16:33:08;16.32;60.23
66582;SHT31;53438;48.898;2.308;2023-03-23T16:35:34;16.39;59.81
66582;SHT31;53438;48.898;2.308;2023-03-23T16:38:00;16.33;59.47
66582;SHT31;53438;48.898;2.308;2023-03-23T16:40:26;16.32;59.13
66582;SHT31;53438;48.898;2.308;2023-03-23T16:42:52;16.30;58.81
66582;SHT31;53438;48.898;2.308;2023-03-23T16:45:19;16.34;58.61
66582;SHT31;53438;48.898;2.308;2023-03-23T16:47:45;16.26;58.64
66582;SHT31;53438;48.898;2.308;2023-03-23T16:50:13;16.28;58.44
66582;SHT31;53438;48.898;2.308;2023-03-23T16:52:41;16.26;58.38
66582;SHT31;53438;48.898;2.308;2023-03-23T16:55:07;16.32;58.23
66582;SHT31;53438;48.898;2.308;2023-03-23T16:57:34;16.36;58.38
66582;SHT31;53438;48.898;2.308;2023-03-23T17:00:03;16.32;58.26
66582;SHT31;53438;48.898;2.308;2023-03-23T17:02:30;16.28;58.42
66582;SHT31;53438;48.898;2.308;2023-03-23T17:04:55;16.29;58.98
66582;SHT31;53438;48.898;2.308;2023-03-23T17:07:22;16.28;58.96
66582;SHT31;53438;48.898;2.308;2023-03-23T17:09:47;16.23;59.24
66582;SHT31;53438;48.898;2.308;2023-03-23T17:12:14;16.23;59.27
66582;SHT31;53438;48.898;2.308;2023-03-23T17:14:40;16.25;59.46
66582;SHT31;53438;48.898;2.308;2023-03-23T17:17:05;16.25;59.65
66582;SHT31;53438;48.898;2.308;2023-03-23T17:19:31;16.26;59.83
66582;SHT31;53438;48.898;2.308;2023-03-23T17:21:56;16.29;59.72
66582;SHT31;53438;48.898;2.308;2023-03-23T17:24:22;16.25;60.06
66582;SHT31;53438;48.898;2.308;2023-03-23T17:26:47;16.22;60.30
66582;SHT31;53438;48.898;2.308;2023-03-23T17:29:12;16.20;60.39
66582;SHT31;53438;48.898;2.308;2023-03-23T17:31:38;16.20;60.60
66582;SHT31;53438;48.898;2.308;2023-03-23T17:34:05;16.16;60.93
66582;SHT31;53438;48.898;2.308;2023-03-23T17:36:31;16.19;61.00
66582;SHT31;53438;48.898;2.308;2023-03-23T17:38:56;16.18;61.40
66582;SHT31;53438;48.898;2.308;2023-03-23T17:41:22;16.15;61.59
66582;SHT31;53438;48.898;2.308;2023-03-23T17:43:47;16.06;61.79
66582;SHT31;53438;48.898;2.308;2023-03-23T17:46:14;16.15;61.61
66582;SHT31;53438;48.898;2.308;2023-03-23T17:48:40;16.11;61.92
66582;SHT31;53438;48.898;2.308;2023-03-23T17:51:06;16.09;61.98
66582;SHT31;53438;48.898;2.308;2023-03-23T17:53:33;16.11;62.11
66582;SHT31;53438;48.898;2.308;2023-03-23T17:56:00;16.12;62.39
66582;SHT31;53438;48.898;2.308;2023-03-23T17:58:26;16.05;62.24
66582;SHT31;53438;48.898;2.308;2023-03-23T18:00:53;16.04;62.22
66582;SHT31;53438;48.898;2.308;2023-03-23T18:03:19;16.01;62.35
66582;SHT31;53438;48.898;2.308;2023-03-23T18:05:45;16.02;62.58
66582;SHT31;53438;48.898;2.308;2023-03-23T18:08:10;15.99;62.90
66582;SHT31;53438;48.898;2.308;2023-03-23T18:10:37;15.95;63.66
66582;SHT31;53438;48.898;2.308;2023-03-23T18:13:04;15.92;64.24
66582;SHT31;53438;48.898;2.308;2023-03-23T18:15:31;15.94;64.61
66582;SHT31;53438;48.898;2.308;2023-03-23T18:17:58;15.90;64.97
66582;SHT31;53438;48.898;2.308;2023-03-23T18:20:25;15.92;65.40
66582;SHT31;53438;48.898;2.308;2023-03-23T18:22:50;15.95;65.34
66582;SHT31;53438;48.898;2.308;2023-03-23T18:25:16;15.81;66.08
66582;SHT31;53438;48.898;2.308;2023-03-23T18:27:41;15.82;66.20
66582;SHT31;53438;48.898;2.308;2023-03-23T18:30:08;15.87;65.94
66582;SHT31;53438;48.898;2.308;2023-03-23T18:32:34;15.75;66.48
66582;SHT31;53438;48.898;2.308;2023-03-23T18:35:02;15.77;66.72
66582;SHT31;53438;48.898;2.308;2023-03-23T18:37:31;15.75;66.04
66582;SHT31;53438;48.898;2.308;2023-03-23T18:40:07;15.74;66.03
66582;SHT31;53438;48.898;2.308;2023-03-23T18:42:40;15.75;66.03
66582;SHT31;53438;48.898;2.308;2023-03-23T18:45:07;15.74;66.05
66582;SHT31;53438;48.898;2.308;2023-03-23T18:47:32;15.87;65.47
66582;SHT31;53438;48.898;2.308;2023-03-23T18:49:58;15.78;65.69
66582;SHT31;53438;48.898;2.308;2023-03-23T18:52:24;15.77;65.60
66582;SHT31;53438;48.898;2.308;2023-03-23T18:54:56;15.75;65.63
66582;SHT31;53438;48.898;2.308;2023-03-23T18:57:22;15.72;65.78
66582;SHT31;53438;48.898;2.308;2023-03-23T18:59:48;15.75;65.53
66582;SHT31;53438;48.898;2.308;2023-03-23T19:02:14;15.74;65.65
66582;SHT31;53438;48.898;2.308;2023-03-23T19:04:42;15.74;65.79
66582;SHT31;53438;48.898;2.308;2023-03-23T19:07:08;15.72;65.64
66582;SHT31;53438;48.898;2.308;2023-03-23T19:09:33;15.74;65.78
66582;SHT31;53438;48.898;2.308;2023-03-23T19:11:59;15.80;65.75
66582;SHT31;53438;48.898;2.308;2023-03-23T19:14:25;15.78;65.73
66582;SHT31;53438;48.898;2.308;2023-03-23T19:16:51;15.72;66.16
66582;SHT31;53438;48.898;2.308;2023-03-23T19:19:17;15.72;66.69
66582;SHT31;53438;48.898;2.308;2023-03-23T19:21:42;15.72;66.78
66582;SHT31;53438;48.898;2.308;2023-03-23T19:24:08;15.67;67.13
66582;SHT31;53438;48.898;2.308;2023-03-23T19:26:44;15.72;67.46
66582;SHT31;53438;48.898;2.308;2023-03-23T19:29:12;15.67;67.94
66582;SHT31;53438;48.898;2.308;2023-03-23T19:31:37;15.67;67.82
66582;SHT31;53438;48.898;2.308;2023-03-23T19:34:03;15.57;68.73
66582;SHT31;53438;48.898;2.308;2023-03-23T19:36:31;15.51;69.61
66582;SHT31;53438;48.898;2.308;2023-03-23T19:38:56;15.55;69.24
66582;SHT31;53438;48.898;2.308;2023-03-23T19:41:23;15.54;69.32
66582;SHT31;53438;48.898;2.308;2023-03-23T19:43:51;15.54;69.41
66582;SHT31;53438;48.898;2.308;2023-03-23T19:46:17;15.50;69.83
66582;SHT31;53438;48.898;2.308;2023-03-23T19:48:42;15.47;70.32
66582;SHT31;53438;48.898;2.308;2023-03-23T19:51:10;15.55;70.19
66582;SHT31;53438;48.898;2.308;2023-03-23T19:53:36;15.55;69.99
66582;SHT31;53438;48.898;2.308;2023-03-23T19:56:02;15.41;70.35
66582;SHT31;53438;48.898;2.308;2023-03-23T19:58:29;15.44;70.65
66582;SHT31;53438;48.898;2.308;2023-03-23T20:00:54;15.27;71.55
66582;SHT31;53438;48.898;2.308;2023-03-23T20:03:20;15.23;71.71
66582;SHT31;53438;48.898;2.308;2023-03-23T20:05:46;15.18;71.86
66582;SHT31;53438;48.898;2.308;2023-03-23T20:08:12;15.13;72.36
66582;SHT31;53438;48.898;2.308;2023-03-23T20:10:37;15.13;71.76
66582;SHT31;53438;48.898;2.308;2023-03-23T20:13:05;15.10;72.47